Time;durP1;ratioP1;P1;durP2;ratioP2;P2;SDS_P1;SDS_P2;PMS_P1;PMS_P2;Temp;Humidity;BMP_temperature;BMP_pressure;BME280_temperature;BME280_humidity;BME280_pressure;Samples;Min_cycle;Max_cycle;Signal;HPM_P1;HPM_P2
2022/01/11 00:02:07;;;;;;;;;;;-0.20;99.90;;;;;;5080154;28;19924;-79
2022/01/11 00:04:33;;;;;;;;;;;0.50;99.90;;;;;;5079917;28;19935;-79
2022/01/11 00:07:01;;;;;;;;;;;-0.20;99.90;;;;;;5080254;28;19929;-79
2022/01/11 00:11:55;;;;;;;;;;;-0.30;99.90;;;;;;5098042;28;19924;-79
2022/01/11 00:14:20;;;;;;;;;;;-0.20;99.90;;;;;;5063519;28;19928;-79
2022/01/11 00:16:46;;;;;;;;;;;-0.30;99.90;;;;;;5098238;28;19927;-79
2022/01/11 00:19:13;;;;;;;;;;;-0.30;99.90;;;;;;5097735;28;19938;-79
2022/01/11 00:21:45;;;;;;;;;;;-0.30;99.90;;;;;;5080627;28;19924;-79
2022/01/11 00:26:55;;;;;;;;;;;-0.30;99.90;;;;;;5098443;28;20323;-79
2022/01/11 00:29:21;;;;;;;;;;;0.50;99.90;;;;;;5098918;28;20018;-79
2022/01/11 00:31:48;;;;;;;;;;;-0.20;99.90;;;;;;5079634;28;19959;-79
2022/01/11 00:34:16;;;;;;;;;;;-0.30;99.90;;;;;;5098074;28;19969;-79
2022/01/11 00:36:42;;;;;;;;;;;-0.20;99.90;;;;;;5080065;28;19928;-79
2022/01/11 00:39:09;;;;;;;;;;;-0.30;99.90;;;;;;5079594;28;19924;-79
2022/01/11 00:41:36;;;;;;;;;;;-0.30;99.90;;;;;;5096838;28;20293;-79
2022/01/11 00:44:01;;;;;;;;;;;-0.30;99.90;;;;;;5098383;28;19941;-79
2022/01/11 00:46:27;;;;;;;;;;;-0.30;99.90;;;;;;5063206;28;19924;-79
2022/01/11 00:48:52;;;;;;;;;;;-0.30;99.90;;;;;;5096069;28;19924;-79
2022/01/11 00:51:18;;;;;;;;;;;-0.30;99.90;;;;;;5080022;28;19924;-79
2022/01/11 00:53:43;;;;;;;;;;;-0.30;99.90;;;;;;5080186;28;20354;-79
2022/01/11 00:56:09;;;;;;;;;;;-0.40;99.90;;;;;;5080154;28;20366;-79
2022/01/11 00:58:35;;;;;;;;;;;-0.40;99.90;;;;;;5080591;28;20382;-79
2022/01/11 01:01:00;;;;;;;;;;;-0.40;99.90;;;;;;5079579;28;19928;-80
2022/01/11 01:03:26;;;;;;;;;;;-0.40;99.90;;;;;;5098037;28;19928;-79
2022/01/11 01:05:52;;;;;;;;;;;-0.40;99.90;;;;;;5080598;28;20292;-79
2022/01/11 01:08:18;;;;;;;;;;;-0.40;99.90;;;;;;5084982;28;19924;-79
2022/01/11 01:10:47;;;;;;;;;;;-0.40;99.90;;;;;;5068042;28;19931;-79
2022/01/11 01:13:15;;;;;;;;;;;-0.40;99.90;;;;;;5097268;28;19959;-79
2022/01/11 01:15:41;;;;;;;;;;;-0.40;99.90;;;;;;5063565;28;19963;-79
2022/01/11 01:18:07;;;;;;;;;;;0.00;99.90;;;;;;5098950;28;19931;-80
2022/01/11 01:20:33;;;;;;;;;;;-0.40;99.90;;;;;;5098908;28;19971;-79
2022/01/11 01:22:59;;;;;;;;;;;-0.40;99.90;;;;;;5080015;28;19946;-79
2022/01/11 01:25:24;;;;;;;;;;;-0.40;99.90;;;;;;5080544;28;20295;-79
2022/01/11 01:27:51;;;;;;;;;;;-0.30;99.90;;;;;;5080449;28;19928;-79
2022/01/11 01:30:17;;;;;;;;;;;-0.40;99.90;;;;;;5098168;28;19928;-79
2022/01/11 01:32:43;;;;;;;;;;;-0.30;99.90;;;;;;5063375;28;19924;-79
2022/01/11 01:35:09;;;;;;;;;;;-0.30;99.90;;;;;;5080686;28;19931;-79
2022/01/11 01:37:35;;;;;;;;;;;-0.40;99.90;;;;;;5097776;28;20382;-79
2022/01/11 01:40:00;;;;;;;;;;;-0.40;99.90;;;;;;5099109;28;19981;-79
2022/01/11 01:42:29;;;;;;;;;;;-0.40;99.90;;;;;;5080512;28;20294;-80
2022/01/11 01:44:54;;;;;;;;;;;-0.40;99.90;;;;;;5099173;28;19932;-79
2022/01/11 01:47:20;;;;;;;;;;;0.00;99.90;;;;;;5063614;28;19928;-79
2022/01/11 01:49:46;;;;;;;;;;;-0.40;99.90;;;;;;5065680;28;19931;-79
2022/01/11 01:52:14;;;;;;;;;;;-0.40;99.90;;;;;;5067382;28;20275;-79
2022/01/11 01:54:39;;;;;;;;;;;-0.40;99.90;;;;;;5084455;28;19924;-79
2022/01/11 01:57:05;;;;;;;;;;;-0.10;99.90;;;;;;5084646;28;19924;-80
2022/01/11 01:59:31;;;;;;;;;;;-0.40;99.90;;;;;;5102247;28;19928;-79
2022/01/11 02:01:57;;;;;;;;;;;-0.30;99.90;;;;;;5083644;28;19927;-80
2022/01/11 02:04:23;;;;;;;;;;;-0.30;99.90;;;;;;5084675;28;19932;-80
2022/01/11 02:06:48;;;;;;;;;;;0.10;99.90;;;;;;5083964;28;19980;-79
2022/01/11 02:09:15;;;;;;;;;;;-0.30;99.90;;;;;;5101853;28;19924;-80
2022/01/11 02:11:41;;;;;;;;;;;-0.30;99.90;;;;;;5102211;28;20405;-79
2022/01/11 02:14:06;;;;;;;;;;;0.00;99.90;;;;;;5083675;28;19924;-79
2022/01/11 02:16:32;;;;;;;;;;;-0.20;99.90;;;;;;5083181;28;20018;-80
2022/01/11 02:18:57;;;;;;;;;;;-0.20;99.90;;;;;;5066162;28;19924;-80
2022/01/11 02:21:23;;;;;;;;;;;-0.20;99.90;;;;;;5083391;28;19977;-79
2022/01/11 02:23:52;;;;;;;;;;;-0.10;99.90;;;;;;5076172;28;19924;-79
2022/01/11 02:26:17;;;;;;;;;;;-0.10;99.90;;;;;;5047009;28;20389;-79
2022/01/11 02:28:43;;;;;;;;;;;-0.10;99.90;;;;;;5063918;28;19924;-80
2022/01/11 02:31:12;;;;;;;;;;;0.70;99.90;;;;;;5081489;28;19925;-80
2022/01/11 02:33:41;;;;;;;;;;;-0.10;99.90;;;;;;5062395;28;19925;-80
2022/01/11 02:36:08;;;;;;;;;;;-0.10;99.90;;;;;;5046695;28;19921;-80
2022/01/11 02:38:34;;;;;;;;;;;-0.10;99.90;;;;;;5081120;28;19925;-79
2022/01/11 02:41:00;;;;;;;;;;;-0.10;99.90;;;;;;5081226;28;20430;-79
2022/01/11 02:43:26;;;;;;;;;;;-0.10;99.90;;;;;;5094263;23;19947;-79
2022/01/11 02:45:52;;;;;;;;;;;-0.10;99.90;;;;;;5083184;28;19924;-79
2022/01/11 02:48:18;;;;;;;;;;;-0.10;99.90;;;;;;5066244;28;20366;-80
2022/01/11 02:50:45;;;;;;;;;;;-0.10;99.90;;;;;;5066267;28;19924;-79
2022/01/11 02:53:10;;;;;;;;;;;0.10;99.90;;;;;;5082657;28;19924;-80
2022/01/11 02:55:38;;;;;;;;;;;-0.10;99.90;;;;;;5082636;28;19946;-80
2022/01/11 02:58:04;;;;;;;;;;;-0.20;99.90;;;;;;5101274;28;20374;-81
2022/01/11 03:00:29;;;;;;;;;;;-0.20;99.90;;;;;;5080610;28;19967;-80
2022/01/11 03:02:55;;;;;;;;;;;0.30;99.90;;;;;;5082127;28;19924;-80
2022/01/11 03:05:21;;;;;;;;;;;0.50;99.90;;;;;;5053075;28;20421;-80
2022/01/11 03:07:46;;;;;;;;;;;-0.10;99.90;;;;;;5066305;28;19924;-80
2022/01/11 03:10:32;;;;;;;;;;;-0.20;99.90;;;;;;5083427;28;19985;-80
2022/01/11 03:13:04;;;;;;;;;;;0.50;99.90;;;;;;5066467;28;19987;-79
2022/01/11 03:15:29;;;;;;;;;;;-0.10;99.90;;;;;;5066358;28;19970;-79
2022/01/11 03:17:55;;;;;;;;;;;-0.10;99.90;;;;;;5065742;28;20305;-80
2022/01/11 03:20:21;;;;;;;;;;;-0.20;99.90;;;;;;5082239;28;19924;-79
2022/01/11 03:22:46;;;;;;;;;;;-0.20;99.90;;;;;;5065240;28;20393;-79
2022/01/11 03:25:12;;;;;;;;;;;-0.20;99.90;;;;;;5065819;28;19924;-80
2022/01/11 03:27:39;;;;;;;;;;;-0.20;99.90;;;;;;5065062;28;20370;-80
2022/01/11 03:30:04;;;;;;;;;;;-0.20;99.90;;;;;;5081846;28;20390;-80
2022/01/11 03:32:30;;;;;;;;;;;-0.30;99.90;;;;;;5065320;28;20026;-80
2022/01/11 03:34:56;;;;;;;;;;;-0.20;99.90;;;;;;5065184;28;19924;-79
2022/01/11 03:37:21;;;;;;;;;;;-0.10;99.90;;;;;;5065141;28;20026;-80
2022/01/11 03:39:47;;;;;;;;;;;-0.20;99.90;;;;;;5064718;28;19931;-80
2022/01/11 03:42:13;;;;;;;;;;;-0.10;99.90;;;;;;5089328;22;20006;-80
2022/01/11 03:44:39;;;;;;;;;;;-0.10;99.90;;;;;;5064612;28;19963;-80
2022/01/11 03:47:05;;;;;;;;;;;-0.10;99.90;;;;;;5064802;28;19946;-80
2022/01/11 03:49:31;;;;;;;;;;;-0.10;99.90;;;;;;5071243;23;20031;-79
2022/01/11 03:51:56;;;;;;;;;;;-0.10;99.90;;;;;;5073168;23;19993;-79
2022/01/11 03:54:28;;;;;;;;;;;-0.10;99.90;;;;;;5045691;28;20464;-79
2022/01/11 03:56:54;;;;;;;;;;;-0.10;99.90;;;;;;5045575;28;19932;-80
2022/01/11 03:59:20;;;;;;;;;;;-0.40;99.90;;;;;;5061902;28;19924;-80
2022/01/11 04:01:46;;;;;;;;;;;0.00;99.90;;;;;;5080231;28;20402;-79
2022/01/11 04:04:12;;;;;;;;;;;-0.10;99.90;;;;;;5061936;28;20003;-80
2022/01/11 04:06:39;;;;;;;;;;;-0.10;99.90;;;;;;5062807;28;19972;-79
2022/01/11 04:09:05;;;;;;;;;;;0.00;99.90;;;;;;5059911;23;19932;-80
2022/01/11 04:11:31;;;;;;;;;;;0.00;99.90;;;;;;5066782;28;19966;-80
2022/01/11 04:13:56;;;;;;;;;;;-0.10;99.90;;;;;;5103587;28;19924;-80
2022/01/11 04:16:22;;;;;;;;;;;0.00;99.90;;;;;;5065461;28;19955;-80
2022/01/11 04:18:47;;;;;;;;;;;0.10;99.90;;;;;;5065842;28;19935;-80
2022/01/11 04:21:13;;;;;;;;;;;-0.10;99.90;;;;;;5065423;28;20404;-80
2022/01/11 04:23:39;;;;;;;;;;;-0.10;99.90;;;;;;5081774;28;19987;-80
2022/01/11 04:26:05;;;;;;;;;;;-0.10;99.90;;;;;;5065322;28;19924;-80
2022/01/11 04:28:30;;;;;;;;;;;-0.10;99.90;;;;;;5065731;28;19920;-80
2022/01/11 04:30:58;;;;;;;;;;;-0.10;99.90;;;;;;5082018;28;19932;-80
2022/01/11 04:33:24;;;;;;;;;;;0.40;99.90;;;;;;5064809;28;19924;-80
2022/01/11 04:35:50;;;;;;;;;;;-0.20;99.90;;;;;;5065005;28;19935;-80
2022/01/11 04:38:17;;;;;;;;;;;0.30;99.90;;;;;;5081405;28;19962;-80
2022/01/11 04:40:42;;;;;;;;;;;0.20;99.90;;;;;;5065311;28;19931;-80
2022/01/11 04:43:08;;;;;;;;;;;-0.20;99.90;;;;;;5076161;23;19924;-80
2022/01/11 04:45:34;;;;;;;;;;;-0.20;99.90;;;;;;5069390;28;19996;-80
2022/01/11 04:47:59;;;;;;;;;;;-0.20;99.90;;;;;;5082323;28;20318;-80
2022/01/11 04:50:28;;;;;;;;;;;-0.20;99.90;;;;;;5100607;28;20374;-80
2022/01/11 04:52:53;;;;;;;;;;;-0.20;99.90;;;;;;5065555;28;19930;-80
2022/01/11 04:55:19;;;;;;;;;;;0.50;99.90;;;;;;5065514;28;20022;-79
2022/01/11 04:57:45;;;;;;;;;;;-0.20;99.90;;;;;;5065204;28;19924;-80
2022/01/11 05:00:11;;;;;;;;;;;-0.20;99.90;;;;;;5065198;28;19933;-80
2022/01/11 05:02:37;;;;;;;;;;;-0.20;99.90;;;;;;5074628;23;19924;-81
2022/01/11 05:05:03;;;;;;;;;;;-0.10;99.90;;;;;;5102353;28;20281;-79
2022/01/11 05:07:28;;;;;;;;;;;-0.30;99.90;;;;;;5119645;28;19923;-80
2022/01/11 05:09:54;;;;;;;;;;;0.30;99.90;;;;;;5101777;28;19931;-80
2022/01/11 05:12:20;;;;;;;;;;;-0.30;99.90;;;;;;5101605;28;19924;-80
2022/01/11 05:14:45;;;;;;;;;;;-0.20;99.90;;;;;;5102088;28;19924;-80
2022/01/11 05:17:11;;;;;;;;;;;-0.30;99.90;;;;;;5119052;28;19924;-80
2022/01/11 05:19:36;;;;;;;;;;;-0.30;99.90;;;;;;5118857;28;19923;-80
2022/01/11 05:22:02;;;;;;;;;;;-0.30;99.90;;;;;;5119099;28;19934;-80
2022/01/11 05:24:27;;;;;;;;;;;-0.30;99.90;;;;;;5101226;22;20290;-80
2022/01/11 05:26:53;;;;;;;;;;;-0.40;99.90;;;;;;5085498;28;19928;-80
2022/01/11 05:29:19;;;;;;;;;;;0.00;99.90;;;;;;5085760;28;19920;-80
2022/01/11 05:31:44;;;;;;;;;;;-0.40;99.90;;;;;;5085243;28;19924;-79
2022/01/11 05:34:10;;;;;;;;;;;-0.40;99.90;;;;;;5085468;28;20015;-80
2022/01/11 05:36:35;;;;;;;;;;;0.30;99.90;;;;;;5085568;28;19931;-80
2022/01/11 05:39:01;;;;;;;;;;;-0.30;99.90;;;;;;5085191;28;19932;-80
2022/01/11 05:41:26;;;;;;;;;;;0.00;99.90;;;;;;5102564;28;19925;-79
2022/01/11 05:43:52;;;;;;;;;;;-0.50;99.90;;;;;;5085094;28;19924;-80
2022/01/11 05:46:18;;;;;;;;;;;-0.50;99.90;;;;;;5100993;22;19942;-80
2022/01/11 05:48:45;;;;;;;;;;;-0.50;99.90;;;;;;5063388;28;19932;-80
2022/01/11 05:51:11;;;;;;;;;;;-0.50;99.90;;;;;;5048438;28;19924;-80
2022/01/11 05:53:37;;;;;;;;;;;-0.50;99.90;;;;;;5047812;28;19925;-80
2022/01/11 05:56:02;;;;;;;;;;;-0.50;99.90;;;;;;5048295;28;19932;-80
2022/01/11 05:58:28;;;;;;;;;;;-0.60;99.90;;;;;;5056400;23;20386;-80
2022/01/11 06:00:54;;;;;;;;;;;-0.60;99.90;;;;;;5086282;23;20282;-79
2022/01/11 06:03:20;;;;;;;;;;;-0.60;99.90;;;;;;5093332;28;19919;-80
2022/01/11 06:05:45;;;;;;;;;;;-0.60;99.90;;;;;;5097324;28;19967;-80
2022/01/11 06:08:16;;;;;;;;;;;-0.60;99.90;;;;;;5070715;28;19924;-80
2022/01/11 06:10:42;;;;;;;;;;;-0.60;99.90;;;;;;5085686;28;20295;-80
2022/01/11 06:13:15;;;;;;;;;;;-0.60;99.90;;;;;;5098835;22;19924;-80
2022/01/11 06:15:40;;;;;;;;;;;-0.60;99.90;;;;;;5022798;28;19971;-80
2022/01/11 06:18:06;;;;;;;;;;;-0.60;99.90;;;;;;5025082;28;20019;-80
2022/01/11 06:20:32;;;;;;;;;;;-0.60;99.90;;;;;;5008595;28;20415;-80
2022/01/11 06:22:58;;;;;;;;;;;-0.60;99.90;;;;;;5077221;22;19924;-80
2022/01/11 06:25:23;;;;;;;;;;;-0.20;99.90;;;;;;5057329;22;19924;-81
2022/01/11 06:27:49;;;;;;;;;;;-0.60;99.90;;;;;;5074981;23;20390;-81
2022/01/11 06:30:16;;;;;;;;;;;-0.60;99.90;;;;;;5104761;23;20404;-80
2022/01/11 06:32:43;;;;;;;;;;;-0.20;99.90;;;;;;5109434;22;19970;-81
2022/01/11 06:35:15;;;;;;;;;;;-0.60;99.90;;;;;;5109503;22;20126;31
2022/01/11 06:37:41;;;;;;;;;;;-0.60;99.90;;;;;;5081031;22;20432;-80
2022/01/11 06:42:40;;;;;;;;;;;-0.60;99.90;;;;;;5108130;22;20375;-80
2022/01/11 06:45:14;;;;;;;;;;;-0.60;99.90;;;;;;5071775;22;19932;-81
2022/01/11 06:47:40;;;;;;;;;;;-0.60;99.90;;;;;;5087459;22;20581;-80
2022/01/11 06:50:12;;;;;;;;;;;-0.60;99.90;;;;;;5095525;22;19967;-81
2022/01/11 06:52:38;;;;;;;;;;;-0.60;99.90;;;;;;5060677;22;20018;-80
2022/01/11 06:55:04;;;;;;;;;;;-0.60;99.90;;;;;;5087307;23;20370;-81
2022/01/11 06:57:30;;;;;;;;;;;-0.60;99.90;;;;;;5097676;22;19924;-81
2022/01/11 06:59:55;;;;;;;;;;;-0.60;99.90;;;;;;5067058;28;19931;-80
2022/01/11 07:02:21;;;;;;;;;;;-0.60;99.90;;;;;;5061553;22;19947;-81
2022/01/11 07:04:46;;;;;;;;;;;-0.60;99.90;;;;;;5086396;22;20385;-80
2022/01/11 07:07:19;;;;;;;;;;;-0.60;99.90;;;;;;5099966;22;19989;-80
2022/01/11 07:09:44;;;;;;;;;;;-0.60;99.90;;;;;;5115195;22;19925;-80
2022/01/11 07:12:12;;;;;;;;;;;-0.60;99.90;;;;;;5131528;22;20281;-81
2022/01/11 07:14:38;;;;;;;;;;;-0.60;99.90;;;;;;5103107;22;19974;-81
2022/01/11 07:17:04;;;;;;;;;;;-0.50;99.90;;;;;;5097619;23;19928;-81
2022/01/11 07:19:29;;;;;;;;;;;-0.60;99.90;;;;;;5088977;23;19924;-80
2022/01/11 07:21:58;;;;;;;;;;;-0.60;99.90;;;;;;5095926;23;19924;-81
2022/01/11 07:24:24;;;;;;;;;;;-0.60;99.90;;;;;;5089553;22;19978;-81
2022/01/11 07:26:50;;;;;;;;;;;-0.60;99.90;;;;;;5096095;23;19958;-81
2022/01/11 07:29:17;;;;;;;;;;;-0.60;99.90;;;;;;5104698;22;19924;-81
2022/01/11 07:31:43;;;;;;;;;;;-0.60;99.90;;;;;;5070274;23;19924;-81
2022/01/11 07:34:12;;;;;;;;;;;-0.60;99.90;;;;;;5106997;22;19924;31
2022/01/11 07:36:38;;;;;;;;;;;-0.60;99.90;;;;;;5108326;22;19974;-81
2022/01/11 07:39:04;;;;;;;;;;;-0.60;99.90;;;;;;5095468;22;20340;-81
2022/01/11 07:41:30;;;;;;;;;;;-0.60;99.90;;;;;;5074801;22;20404;-81
2022/01/11 07:43:55;;;;;;;;;;;-0.60;99.90;;;;;;5098091;22;19928;-81
2022/01/11 07:46:21;;;;;;;;;;;-0.60;99.90;;;;;;5093805;22;19978;-81
2022/01/11 07:48:47;;;;;;;;;;;-0.60;99.90;;;;;;5068440;22;20041;-81
2022/01/11 07:51:12;;;;;;;;;;;-0.60;99.90;;;;;;5085749;22;19932;-82
2022/01/11 07:53:38;;;;;;;;;;;-0.50;99.90;;;;;;5110180;22;19931;-81
2022/01/11 07:56:04;;;;;;;;;;;-0.60;99.90;;;;;;5094857;23;20299;-81
2022/01/11 07:58:29;;;;;;;;;;;-0.60;99.90;;;;;;5088478;22;20383;-81
2022/01/11 08:00:55;;;;;;;;;;;0.00;99.90;;;;;;5081844;23;19935;-81
2022/01/11 08:03:21;;;;;;;;;;;-0.50;99.90;;;;;;5086070;22;19924;-81
2022/01/11 08:05:46;;;;;;;;;;;0.30;99.90;;;;;;5080480;22;19924;-81
2022/01/11 08:08:15;;;;;;;;;;;0.00;99.90;;;;;;5102834;22;20435;31
2022/01/11 08:10:41;;;;;;;;;;;-0.50;99.90;;;;;;5068526;23;20287;-81
2022/01/11 08:13:13;;;;;;;;;;;0.00;99.90;;;;;;5063684;22;19928;-81
2022/01/11 08:15:38;;;;;;;;;;;-0.50;99.90;;;;;;5019987;28;19933;-82
2022/01/11 08:18:05;;;;;;;;;;;0.00;99.90;;;;;;5079546;22;19928;-82
2022/01/11 08:20:31;;;;;;;;;;;-0.40;99.90;;;;;;5100226;22;19929;-81
2022/01/11 08:22:57;;;;;;;;;;;-0.40;99.90;;;;;;5129521;22;19924;-81
2022/01/11 08:25:22;;;;;;;;;;;-0.40;99.90;;;;;;5102375;22;19928;-81
2022/01/11 08:27:48;;;;;;;;;;;-0.40;99.90;;;;;;5086286;22;19975;-81
2022/01/11 08:30:14;;;;;;;;;;;-0.40;99.90;;;;;;5110676;22;20014;-82
2022/01/11 08:32:39;;;;;;;;;;;-0.40;99.90;;;;;;5084887;22;19963;-81
2022/01/11 08:35:05;;;;;;;;;;;-0.40;99.90;;;;;;5098412;22;19924;-81
2022/01/11 08:37:30;;;;;;;;;;;-0.40;99.90;;;;;;5098216;22;19924;-81
2022/01/11 08:39:57;;;;;;;;;;;-0.30;99.90;;;;;;5087354;22;19925;-81
2022/01/11 08:42:22;;;;;;;;;;;-0.30;99.90;;;;;;5105409;22;19931;-81
2022/01/11 08:44:49;;;;;;;;;;;-0.30;99.90;;;;;;5074098;23;19924;-81
2022/01/11 08:47:16;;;;;;;;;;;-0.30;99.90;;;;;;5094537;22;19931;-81
2022/01/11 08:49:41;;;;;;;;;;;-0.30;99.90;;;;;;5096213;22;20615;-81
2022/01/11 08:52:13;;;;;;;;;;;-0.30;99.90;;;;;;5112818;22;20019;-81
2022/01/11 08:54:39;;;;;;;;;;;-0.30;99.90;;;;;;5085604;22;19924;-81
2022/01/11 08:57:05;;;;;;;;;;;-0.30;99.90;;;;;;5076375;23;19931;-81
2022/01/11 08:59:31;;;;;;;;;;;-0.30;99.90;;;;;;5087616;22;19952;-81
2022/01/11 09:01:58;;;;;;;;;;;0.00;99.90;;;;;;5089098;23;19924;-81
2022/01/11 09:04:24;;;;;;;;;;;-0.30;99.90;;;;;;5090008;22;19924;-82
2022/01/11 09:06:50;;;;;;;;;;;-0.30;99.90;;;;;;5092265;22;19932;-81
2022/01/11 09:09:16;;;;;;;;;;;-0.30;99.90;;;;;;5084104;22;19925;-81
2022/01/11 09:11:43;;;;;;;;;;;0.10;99.90;;;;;;5063487;28;19932;-81
2022/01/11 09:14:15;;;;;;;;;;;-0.20;99.90;;;;;;5071301;23;20019;-81
2022/01/11 09:16:40;;;;;;;;;;;-0.20;99.90;;;;;;5062908;22;19929;-81
2022/01/11 09:19:13;;;;;;;;;;;-0.20;99.90;;;;;;5089300;22;19923;-81
2022/01/11 09:21:39;;;;;;;;;;;-0.20;99.90;;;;;;5071266;22;19929;-81
2022/01/11 09:24:05;;;;;;;;;;;-0.20;99.90;;;;;;5068029;22;20023;-82
2022/01/11 09:26:31;;;;;;;;;;;-0.20;99.90;;;;;;5072696;22;19931;-81
2022/01/11 09:28:57;;;;;;;;;;;0.30;99.90;;;;;;5089214;22;19947;-80
2022/01/11 09:31:22;;;;;;;;;;;-0.10;99.90;;;;;;5083820;22;19933;-82
2022/01/11 09:33:49;;;;;;;;;;;-0.10;99.90;;;;;;5083511;23;19924;-81
2022/01/11 09:36:19;;;;;;;;;;;-0.10;99.90;;;;;;5070976;23;19928;31
2022/01/11 09:38:45;;;;;;;;;;;-0.10;99.90;;;;;;5067686;22;19978;-81
2022/01/11 09:41:10;;;;;;;;;;;-0.10;99.90;;;;;;5088085;22;19933;-81
2022/01/11 09:43:36;;;;;;;;;;;0.00;99.90;;;;;;5055069;23;19931;-82
2022/01/11 09:46:01;;;;;;;;;;;0.00;99.90;;;;;;5091765;22;19928;-81
2022/01/11 09:48:28;;;;;;;;;;;0.00;99.90;;;;;;5076413;22;20065;-82
2022/01/11 09:50:54;;;;;;;;;;;0.00;99.90;;;;;;5059931;28;19924;-82
2022/01/11 09:53:20;;;;;;;;;;;0.10;99.90;;;;;;5059453;22;19925;-82
2022/01/11 09:55:46;;;;;;;;;;;0.10;99.90;;;;;;5062021;23;19924;-81
2022/01/11 09:58:13;;;;;;;;;;;0.20;99.90;;;;;;5101489;22;19945;-81
2022/01/11 10:00:39;;;;;;;;;;;0.30;99.90;;;;;;5090540;23;19924;-81
2022/01/11 10:03:06;;;;;;;;;;;0.30;99.90;;;;;;5079132;22;19924;-81
2022/01/11 10:05:33;;;;;;;;;;;0.30;99.90;;;;;;5094326;22;19934;-81
2022/01/11 10:07:58;;;;;;;;;;;0.40;99.90;;;;;;5082517;23;20445;-81
2022/01/11 10:10:26;;;;;;;;;;;0.40;99.90;;;;;;5073953;22;19956;-81
2022/01/11 10:12:53;;;;;;;;;;;0.40;99.90;;;;;;5089028;22;19924;-81
2022/01/11 10:15:26;;;;;;;;;;;0.40;99.90;;;;;;5109530;22;19924;-81
2022/01/11 10:17:51;;;;;;;;;;;0.40;99.90;;;;;;5056747;23;19924;-81
2022/01/11 10:20:20;;;;;;;;;;;0.50;99.90;;;;;;5093229;22;19946;-81
2022/01/11 10:22:50;;;;;;;;;;;0.50;99.90;;;;;;5084545;22;19934;-81
2022/01/11 10:25:16;;;;;;;;;;;0.70;99.90;;;;;;5097905;22;19924;-81
2022/01/11 10:27:42;;;;;;;;;;;1.30;99.90;;;;;;5089405;22;19974;-81
2022/01/11 10:30:17;;;;;;;;;;;0.70;99.90;;;;;;5010371;22;2767278;31
2022/01/11 10:32:45;;;;;;;;;;;0.90;99.90;;;;;;5088106;22;19932;-81
2022/01/11 10:35:18;;;;;;;;;;;1.00;99.90;;;;;;5094276;22;19930;-81
2022/01/11 10:37:45;;;;;;;;;;;1.00;99.90;;;;;;5070281;22;20027;-81
2022/01/11 10:40:17;;;;;;;;;;;1.20;99.90;;;;;;5085292;22;19931;-81
2022/01/11 10:42:45;;;;;;;;;;;1.20;99.90;;;;;;5074584;22;19925;-81
2022/01/11 10:45:12;;;;;;;;;;;1.40;99.90;;;;;;5089384;22;20065;-81
2022/01/11 10:47:40;;;;;;;;;;;1.50;99.90;;;;;;5068799;22;19973;-81
2022/01/11 10:50:14;;;;;;;;;;;1.60;99.90;;;;;;5120623;22;19924;-81
2022/01/11 10:52:40;;;;;;;;;;;1.70;99.90;;;;;;5084912;22;19928;-81
2022/01/11 10:55:06;;;;;;;;;;;1.90;99.90;;;;;;5089941;22;19924;-81
2022/01/11 10:57:36;;;;;;;;;;;1.80;99.90;;;;;;5086763;22;19929;-81
2022/01/11 11:00:10;;;;;;;;;;;1.80;99.90;;;;;;5080874;23;19925;-81
2022/01/11 11:02:36;;;;;;;;;;;1.90;99.90;;;;;;5082377;22;19985;-80
2022/01/11 11:05:16;;;;;;;;;;;2.20;99.90;;;;;;5074788;22;20267;-80
2022/01/11 11:07:42;;;;;;;;;;;1.80;99.90;;;;;;5079613;28;19931;-80
2022/01/11 11:10:08;;;;;;;;;;;1.80;99.90;;;;;;5079174;28;20267;-80
2022/01/11 11:12:34;;;;;;;;;;;1.80;99.90;;;;;;5079430;28;19924;-80
2022/01/11 11:14:59;;;;;;;;;;;1.80;99.90;;;;;;5062228;28;19977;-80
2022/01/11 11:17:26;;;;;;;;;;;1.80;99.90;;;;;;5091190;22;20313;-80
2022/01/11 11:19:56;;;;;;;;;;;1.70;99.90;;;;;;5082573;28;19931;-80
2022/01/11 11:22:24;;;;;;;;;;;1.70;99.90;;;;;;5107397;22;19928;-80
2022/01/11 11:24:51;;;;;;;;;;;2.20;99.90;;;;;;5065847;28;20002;-80
2022/01/11 11:27:17;;;;;;;;;;;1.70;99.90;;;;;;5082697;28;20366;-81
2022/01/11 11:29:42;;;;;;;;;;;1.80;99.90;;;;;;5066034;28;19924;-80
2022/01/11 11:32:08;;;;;;;;;;;2.00;99.90;;;;;;5065845;28;19924;-80
2022/01/11 11:34:33;;;;;;;;;;;2.20;99.90;;;;;;5097852;22;19939;-80
2022/01/11 11:37:05;;;;;;;;;;;1.80;99.90;;;;;;5068883;23;19925;-80
2022/01/11 11:39:31;;;;;;;;;;;1.80;99.90;;;;;;5079166;28;20385;-81
2022/01/11 11:41:57;;;;;;;;;;;1.80;99.90;;;;;;5086606;22;19925;-80
2022/01/11 11:44:24;;;;;;;;;;;1.90;99.90;;;;;;5083829;22;19929;-81
2022/01/11 11:46:55;;;;;;;;;;;1.80;99.90;;;;;;5090816;22;19924;-81
2022/01/11 11:49:40;;;;;;;;;;;1.80;99.90;;;;;;5098332;22;19935;-81
2022/01/11 11:52:27;;;;;;;;;;;1.90;99.90;;;;;;5089475;22;19968;-81
2022/01/11 11:55:12;;;;;;;;;;;2.00;99.90;;;;;;5075139;22;20404;-81
2022/01/11 11:57:40;;;;;;;;;;;2.50;99.90;;;;;;5079360;22;19924;-81
2022/01/11 12:00:12;;;;;;;;;;;2.10;99.90;;;;;;5110745;22;19931;-81
2022/01/11 12:02:39;;;;;;;;;;;2.00;99.90;;;;;;5069403;22;19970;-81
2022/01/11 12:05:06;;;;;;;;;;;2.00;99.90;;;;;;5092147;22;19924;-81
2022/01/11 12:07:40;;;;;;;;;;;2.10;99.90;;;;;;5092426;22;19943;-80
2022/01/11 12:10:09;;;;;;;;;;;2.10;99.90;;;;;;5073464;23;19925;-81
2022/01/11 12:12:38;;;;;;;;;;;2.10;99.90;;;;;;5080559;28;19931;-80
2022/01/11 12:15:22;;;;;;;;;;;2.20;99.90;;;;;;5087252;22;20271;-81
2022/01/11 12:17:48;;;;;;;;;;;2.20;99.90;;;;;;5071056;22;19929;-81
2022/01/11 12:20:37;;;;;;;;;;;2.60;99.90;;;;;;5095547;22;19955;-81
2022/01/11 12:23:02;;;;;;;;;;;2.30;99.90;;;;;;5062184;28;19924;-81
2022/01/11 12:25:29;;;;;;;;;;;2.60;99.90;;;;;;5081382;22;19931;-81
2022/01/11 12:27:59;;;;;;;;;;;2.40;99.90;;;;;;5099876;28;19931;-81
2022/01/11 12:30:26;;;;;;;;;;;2.40;99.90;;;;;;5089779;22;19987;-81
2022/01/11 12:33:10;;;;;;;;;;;3.20;99.90;;;;;;5089770;22;19924;-80
2022/01/11 12:36:16;;;;;;;;;;;2.50;99.90;;;;;;5089840;22;20006;-81
2022/01/11 12:38:59;;;;;;;;;;;2.50;99.90;;;;;;5056502;22;19932;-81
2022/01/11 12:41:37;;;;;;;;;;;2.60;99.90;;;;;;5106074;22;19923;-81
2022/01/11 12:44:22;;;;;;;;;;;2.60;99.90;;;;;;5085129;22;19940;-81
2022/01/11 12:46:59;;;;;;;;;;;2.60;99.90;;;;;;5042591;28;19940;-81
2022/01/11 12:49:28;;;;;;;;;;;2.60;99.90;;;;;;5058059;22;20346;-81
2022/01/11 12:51:58;;;;;;;;;;;2.60;99.90;;;;;;5062870;28;20390;-81
2022/01/11 12:54:24;;;;;;;;;;;3.10;99.90;;;;;;5111853;22;19924;-81
2022/01/11 12:56:51;;;;;;;;;;;2.60;99.90;;;;;;5084009;23;20405;-80
2022/01/11 12:59:18;;;;;;;;;;;2.60;99.90;;;;;;5084682;23;19924;-81
2022/01/11 13:01:44;;;;;;;;;;;2.60;99.90;;;;;;5073896;23;19932;-81
2022/01/11 13:04:16;;;;;;;;;;;2.60;99.90;;;;;;5096717;22;19924;-81
2022/01/11 13:06:41;;;;;;;;;;;2.60;99.90;;;;;;5083359;22;19924;-81
2022/01/11 13:11:48;;;;;;;;;;;2.70;99.90;;;;;;5076001;28;19928;-81
2022/01/11 13:14:18;;;;;;;;;;;2.70;99.90;;;;;;5062131;22;19924;-81
2022/01/11 13:16:46;;;;;;;;;;;2.80;99.90;;;;;;5058192;28;19925;-81
2022/01/11 13:19:13;;;;;;;;;;;2.80;99.90;;;;;;5095172;22;20383;-82
2022/01/11 13:21:38;;;;;;;;;;;2.90;99.90;;;;;;5070513;22;19932;-80
2022/01/11 13:24:11;;;;;;;;;;;3.40;99.90;;;;;;5068268;23;19932;-81
2022/01/11 13:26:37;;;;;;;;;;;2.80;99.90;;;;;;5077843;22;19928;-81
2022/01/11 13:29:03;;;;;;;;;;;3.00;99.90;;;;;;5065246;23;19969;-80
2022/01/11 13:31:31;;;;;;;;;;;2.90;99.90;;;;;;5057888;28;20424;-80
2022/01/11 13:34:00;;;;;;;;;;;2.90;99.90;;;;;;5049352;28;19936;-81
2022/01/11 13:36:27;;;;;;;;;;;3.60;99.90;;;;;;5093137;22;19924;-81
2022/01/11 13:38:57;;;;;;;;;;;3.40;99.90;;;;;;5096017;22;19947;-80
2022/01/11 13:41:30;;;;;;;;;;;2.90;99.90;;;;;;5076027;22;20003;-80
2022/01/11 13:43:58;;;;;;;;;;;2.90;99.90;;;;;;5092923;22;19924;-80
2022/01/11 13:46:24;;;;;;;;;;;2.90;99.90;;;;;;5082521;22;19928;-81
2022/01/11 13:48:50;;;;;;;;;;;3.00;99.90;;;;;;5077318;22;19924;-81
2022/01/11 13:51:27;;;;;;;;;;;3.60;99.90;;;;;;5094726;22;20374;31
2022/01/11 13:54:04;;;;;;;;;;;3.00;99.90;;;;;;5098139;22;19932;-80
2022/01/11 13:56:34;;;;;;;;;;;3.00;99.90;;;;;;5105066;22;19924;-81
2022/01/11 13:59:00;;;;;;;;;;;3.00;99.90;;;;;;5093136;22;19931;-81
2022/01/11 14:01:26;;;;;;;;;;;3.00;99.90;;;;;;5074905;22;19924;-82
2022/01/11 14:04:05;;;;;;;;;;;3.10;99.90;;;;;;5072405;23;20283;-82
2022/01/11 14:06:38;;;;;;;;;;;3.10;99.90;;;;;;5043843;28;19925;-81
2022/01/11 14:09:04;;;;;;;;;;;3.10;99.90;;;;;;5072537;22;19990;-81
2022/01/11 14:11:32;;;;;;;;;;;3.20;99.90;;;;;;5082168;22;20334;-82
2022/01/11 14:13:59;;;;;;;;;;;3.20;99.90;;;;;;5088983;22;19924;-81
2022/01/11 14:16:24;;;;;;;;;;;3.20;99.90;;;;;;5083847;22;20012;-81
2022/01/11 14:19:05;;;;;;;;;;;3.20;99.90;;;;;;5078516;22;19925;-81
2022/01/11 14:21:32;;;;;;;;;;;3.30;99.90;;;;;;5082089;22;19940;-81
2022/01/11 14:23:58;;;;;;;;;;;3.30;99.90;;;;;;5071438;22;19931;-81
2022/01/11 14:26:34;;;;;;;;;;;3.40;99.90;;;;;;5113727;22;19924;-82
2022/01/11 14:28:59;;;;;;;;;;;3.30;99.90;;;;;;5071208;23;19946;-81
2022/01/11 14:31:28;;;;;;;;;;;3.50;99.90;;;;;;5097347;22;20015;-81
2022/01/11 14:33:54;;;;;;;;;;;3.40;99.90;;;;;;5102661;22;20374;-81
2022/01/11 14:36:21;;;;;;;;;;;3.70;99.90;;;;;;5089551;22;19944;-81